Time;durP1;ratioP1;P1;durP2;ratioP2;P2;SDS_P1;SDS_P2;PMS_P1;PMS_P2;Temp;Humidity;BMP_temperature;BMP_pressure;BME280_temperature;BME280_humidity;BME280_pressure;Samples;Min_cycle;Max_cycle;Signal;HPM_P1;HPM_P2
2021/06/12 00:02:14;;;;;;;5.47;4.10;;;;;;;18.72;48.12;98934.00;4924979;29;20040;-91
2021/06/12 00:04:40;;;;;;;6.85;4.28;;;;;;;18.74;48.00;98945.56;4930606;29;20094;-92
2021/06/12 00:07:06;;;;;;;7.18;4.35;;;;;;;18.46;49.04;98925.59;4933004;29;20051;-91
2021/06/12 00:09:32;;;;;;;9.48;4.50;;;;;;;18.54;48.88;98944.88;4921422;29;20040;-92
2021/06/12 00:11:58;;;;;;;5.70;4.45;;;;;;;18.43;48.59;98925.75;4919974;29;20039;-92
2021/06/12 00:14:24;;;;;;;5.97;4.40;;;;;;;18.37;49.00;98926.13;4927509;29;20043;-91
2021/06/12 00:16:52;;;;;;;5.10;3.95;;;;;;;18.44;49.08;98944.53;4920334;29;21595;-92
2021/06/12 00:19:17;;;;;;;8.18;4.43;;;;;;;18.14;49.83;98920.19;4921411;29;20107;-91
2021/06/12 00:21:43;;;;;;;7.15;4.35;;;;;;;18.23;49.69;98938.50;4928406;29;20072;-92
2021/06/12 00:24:10;;;;;;;7.68;4.60;;;;;;;18.11;49.92;98928.44;4922089;29;20075;-93
2021/06/12 00:26:37;;;;;;;6.65;4.53;;;;;;;18.14;50.23;98946.25;4926310;29;20433;-92
2021/06/12 00:29:03;;;;;;;5.80;4.20;;;;;;;17.96;52.96;98938.22;4925427;29;20059;-90
2021/06/12 00:31:29;;;;;;;6.28;4.50;;;;;;;17.62;53.95;98963.34;4922487;29;20029;-92
2021/06/12 00:33:57;;;;;;;6.88;4.50;;;;;;;17.86;50.93;98956.66;4927572;29;20052;-91
2021/06/12 00:36:23;;;;;;;7.18;4.70;;;;;;;17.57;54.74;98939.38;4926758;29;20498;-91
2021/06/12 00:38:49;;;;;;;6.00;4.00;;;;;;;17.22;54.20;98925.97;4924993;29;20043;-91
2021/06/12 00:41:16;;;;;;;7.80;4.50;;;;;;;17.10;55.38;98936.47;4928457;29;20051;-92
2021/06/12 00:43:42;;;;;;;5.55;4.30;;;;;;;17.56;51.63;98948.38;4924246;29;20047;-91
2021/06/12 00:46:09;;;;;;;5.53;4.13;;;;;;;17.70;51.02;98928.84;4920091;29;20553;-93
2021/06/12 00:48:35;;;;;;;6.60;4.30;;;;;;;17.83;50.67;98929.09;4926010;29;20048;-92
2021/06/12 00:51:02;;;;;;;5.53;3.90;;;;;;;17.80;50.37;98919.34;4927259;29;20127;-93
2021/06/12 00:56:22;;;;;;;5.90;4.10;;;;;;;18.21;49.51;98942.25;5148083;27;20146;-91
2021/06/12 00:58:50;;;;;;;6.65;3.95;;;;;;;17.98;52.55;98938.16;5131435;27;20096;-91
2021/06/12 01:01:17;;;;;;;6.60;4.18;;;;;;;17.58;54.76;98946.47;5129658;27;20488;-91
2021/06/12 01:03:45;;;;;;;8.43;4.43;;;;;;;17.13;56.16;98949.75;5131559;27;20846;-94
2021/06/12 01:06:11;;;;;;;6.35;4.25;;;;;;;16.83;57.54;98953.06;5131801;27;20089;-92
2021/06/12 01:08:38;;;;;;;6.78;5.05;;;;;;;16.38;58.98;98930.16;5131526;27;20047;-92
2021/06/12 01:11:05;;;;;;;5.88;4.22;;;;;;;16.29;58.79;98936.84;5131480;27;20114;-92
2021/06/12 01:13:50;;;;;;;6.80;4.55;;;;;;;16.14;59.69;98933.06;5131235;27;20035;-91
2021/06/12 01:16:21;;;;;;;6.13;4.65;;;;;;;16.05;59.44;98928.13;5129458;27;20065;-91
2021/06/12 01:18:49;;;;;;;7.28;4.63;;;;;;;16.02;59.70;98926.44;5131020;27;20039;-91
2021/06/12 01:21:26;;;;;;;8.02;4.50;;;;;;;16.02;60.35;98931.81;5131121;27;20047;-93
2021/06/12 01:24:40;;;;;;;7.88;4.57;;;;;;;16.15;61.02;98950.88;5130784;27;20039;-93
2021/06/12 01:27:33;;;;;;;8.48;4.82;;;;;;;16.09;61.21;98956.56;5103916;27;20044;-92
2021/06/12 01:30:10;;;;;;;8.93;5.10;;;;;;;16.04;61.90;98942.47;5126100;28;20766;-93
2021/06/12 01:32:41;;;;;;;7.25;4.90;;;;;;;15.98;63.00;98946.31;5128560;28;20126;-93
2021/06/12 01:35:11;;;;;;;8.98;5.53;;;;;;;15.97;62.77;98943.72;5130577;27;20035;-93
2021/06/12 01:37:41;;;;;;;9.10;5.68;;;;;;;15.84;63.22;98939.84;5130721;27;20065;-92
2021/06/12 01:40:09;;;;;;;7.38;5.25;;;;;;;15.71;63.19;98926.09;5130571;27;20039;-91
2021/06/12 01:42:36;;;;;;;8.93;5.73;;;;;;;15.63;63.85;98933.63;5129884;28;20047;-89
2021/06/12 01:45:05;;;;;;;6.97;5.20;;;;;;;15.40;64.78;98919.44;5128617;27;20039;-91
2021/06/12 01:47:31;;;;;;;;;;;;;;;15.39;65.79;98936.44;5130070;28;20031;-92
2021/06/12 01:49:58;;;;;;;8.20;5.32;;;;;;;15.25;66.12;98920.13;5130480;27;19926;-93
2021/06/12 01:52:25;;;;;;;8.10;5.55;;;;;;;15.28;65.48;98920.84;5130559;27;20039;-94
2021/06/12 01:54:51;;;;;;;6.82;5.20;;;;;;;15.26;65.05;98922.72;5129888;27;20035;-91
2021/06/12 01:57:17;;;;;;;7.40;5.10;;;;;;;15.16;65.57;98924.94;5130318;27;20031;-90
2021/06/12 01:59:44;;;;;;;7.25;5.20;;;;;;;15.18;64.96;98938.28;5127902;27;20084;-92
2021/06/12 02:02:12;;;;;;;6.53;5.30;;;;;;;14.97;67.02;98932.00;5130398;27;20043;-93
2021/06/12 02:04:39;;;;;;;8.77;5.28;;;;;;;15.00;67.15;98947.94;5130248;27;20039;-92
2021/06/12 02:07:06;;;;;;;7.28;5.47;;;;;;;14.92;66.68;98934.00;5119382;28;20039;-90
2021/06/12 02:09:34;;;;;;;7.60;5.10;;;;;;;14.98;66.59;98949.81;5116248;28;20852;-90
2021/06/12 02:12:01;;;;;;;7.60;5.10;;;;;;;14.96;66.09;98941.88;5116068;28;20096;-92
2021/06/12 02:14:27;;;;;;;6.68;4.57;;;;;;;14.90;65.09;98925.19;5114024;28;20489;-91
2021/06/12 02:16:56;;;;;;;8.50;4.88;;;;;;;14.99;64.95;98948.91;5114579;28;20043;-93
2021/06/12 02:19:24;;;;;;;7.17;4.80;;;;;;;14.95;64.92;98949.94;5116247;27;20497;-91
2021/06/12 02:21:51;;;;;;;6.72;4.80;;;;;;;14.94;65.46;98943.72;5116270;27;20613;-92
2021/06/12 02:24:18;;;;;;;8.35;5.03;;;;;;;14.87;65.52;98946.72;5116123;28;20507;-91
2021/06/12 02:26:47;;;;;;;7.22;5.00;;;;;;;14.90;65.31;98950.16;5115730;28;20048;-92
2021/06/12 02:29:15;;;;;;;7.53;5.07;;;;;;;14.79;65.30;98920.28;5115785;28;20044;-91
2021/06/12 02:31:44;;;;;;;6.68;4.72;;;;;;;14.87;64.70;98946.72;5113151;28;20044;-93
2021/06/12 02:34:10;;;;;;;;;;;;;;;14.99;64.17;98957.78;5116278;28;20409;-91
2021/06/12 02:36:37;;;;;;;8.55;4.70;;;;;;;14.89;65.80;98956.41;5115549;28;19949;-93
2021/06/12 02:39:04;;;;;;;6.68;4.97;;;;;;;14.96;64.99;98963.28;5115984;28;20071;-91
2021/06/12 02:41:30;;;;;;;7.25;4.97;;;;;;;14.84;64.97;98937.00;5115558;27;20046;-91
2021/06/12 02:43:56;;;;;;;6.70;4.68;;;;;;;14.89;64.98;98950.19;5115669;28;20061;-91
2021/06/12 02:46:27;;;;;;;6.45;4.95;;;;;;;14.91;66.15;98954.56;5114008;28;20035;-92
2021/06/12 02:48:58;;;;;;;8.18;4.57;;;;;;;14.91;65.10;98951.88;5113709;28;20482;-91
2021/06/12 02:51:26;;;;;;;7.25;4.82;;;;;;;14.90;65.11;98958.19;5114870;28;20047;-90
2021/06/12 02:53:57;;;;;;;7.80;5.13;;;;;;;14.84;65.25;98953.06;5115582;28;20036;-91
2021/06/12 02:56:24;;;;;;;7.82;4.78;;;;;;;14.89;66.03;98966.28;5115615;28;20039;-93
2021/06/12 02:58:52;;;;;;;8.07;5.05;;;;;;;14.85;64.31;98960.16;5115271;28;20115;-91
2021/06/12 03:01:19;;;;;;;9.70;5.00;;;;;;;14.87;64.77;98962.78;5112987;28;20035;-92
2021/06/12 03:03:47;;;;;;;6.72;4.90;;;;;;;14.93;64.12;98962.53;5115406;28;20032;-92
2021/06/12 03:06:13;;;;;;;6.60;4.82;;;;;;;14.91;63.42;98954.56;5115191;28;20512;-92
2021/06/12 03:08:43;;;;;;;9.60;4.90;;;;;;;14.95;63.59;98958.00;5115277;28;20036;-91
2021/06/12 03:11:12;;;;;;;6.68;4.65;;;;;;;14.97;62.30;98950.75;5115468;28;20123;-91
2021/06/12 03:13:43;;;;;;;6.82;4.88;;;;;;;15.40;60.05;98941.75;5115712;28;20430;-90
2021/06/12 03:16:10;;;;;;;7.20;4.50;;;;;;;15.59;60.01;98955.22;5111968;28;20044;-91
2021/06/12 03:18:38;;;;;;;6.63;4.43;;;;;;;15.80;59.25;98964.09;5114119;28;20036;-92
2021/06/12 03:21:04;;;;;;;7.45;4.57;;;;;;;15.77;59.70;98958.03;5112437;28;20097;-91
2021/06/12 03:23:31;;;;;;;7.80;4.70;;;;;;;15.67;59.81;98943.25;5115156;28;20036;-92
2021/06/12 03:26:03;;;;;;;7.07;4.55;;;;;;;15.75;60.06;98962.59;5115344;28;20376;-91
2021/06/12 03:28:31;;;;;;;6.47;4.40;;;;;;;15.74;59.82;98967.09;5113963;28;20055;-93
2021/06/12 03:30:57;;;;;;;7.70;4.80;;;;;;;15.52;61.25;98956.41;5112634;28;20031;-90
2021/06/12 03:33:24;;;;;;;6.30;4.63;;;;;;;15.51;61.62;98967.22;5114521;28;20136;-92
2021/06/12 03:38:53;;;;;;;5.03;4.30;;;;;;;15.65;61.99;98983.53;5147186;27;20421;-90
2021/06/12 03:41:20;;;;;;;6.78;4.80;;;;;;;15.62;62.65;98975.63;5131777;28;20039;-92
2021/06/12 03:43:48;;;;;;;7.55;4.57;;;;;;;15.57;63.89;98975.84;5131316;28;20039;-91
2021/06/12 03:46:15;;;;;;;7.90;5.30;;;;;;;15.48;64.27;98970.00;5129578;28;20031;-93
2021/06/12 03:48:44;;;;;;;9.30;5.68;;;;;;;15.45;64.91;98971.03;5131411;28;20126;-92
2021/06/12 03:51:13;;;;;;;8.50;5.57;;;;;;;15.43;64.75;98972.91;5131495;28;20047;-92
2021/06/12 03:56:38;;;;;;;8.93;6.10;;;;;;;15.12;65.85;98963.50;5147797;27;20140;-93
2021/06/12 03:59:06;;;;;;;7.25;5.53;;;;;;;15.25;65.91;99005.84;5130368;28;20050;-92
2021/06/12 04:01:32;;;;;;;7.50;5.47;;;;;;;15.08;66.12;98993.16;5129526;27;20048;-92
2021/06/12 04:03:58;;;;;;;7.30;5.20;;;;;;;15.05;66.89;98993.28;5131479;27;20040;-93
2021/06/12 04:06:24;;;;;;;7.30;5.35;;;;;;;14.89;68.14;98982.34;5131473;27;20577;-92
2021/06/12 04:08:50;;;;;;;8.50;5.88;;;;;;;14.97;68.13;98994.47;5131351;27;20031;-92
2021/06/12 04:11:16;;;;;;;8.82;5.40;;;;;;;14.82;67.24;98968.34;5131609;27;20039;-90
2021/06/12 04:13:44;;;;;;;7.35;5.07;;;;;;;14.84;67.12;98985.22;5131153;27;20126;-94
2021/06/12 04:16:10;;;;;;;7.47;5.50;;;;;;;14.74;67.46;98979.34;5129122;27;20088;-91
2021/06/12 04:18:36;;;;;;;11.18;6.30;;;;;;;14.80;68.44;98991.63;5131295;27;20088;-91
2021/06/12 04:21:03;;;;;;;8.05;5.80;;;;;;;14.79;68.73;98977.38;5130916;27;20035;-91
2021/06/12 04:23:29;;;;;;;9.35;6.07;;;;;;;14.87;68.52;98984.19;5131290;27;20039;-92
2021/06/12 04:25:55;;;;;;;8.52;6.00;;;;;;;14.78;68.75;98974.75;5131525;27;20422;-92
2021/06/12 04:28:21;;;;;;;10.35;6.93;;;;;;;14.86;68.94;98995.84;5131039;27;20077;-91
2021/06/12 04:30:50;;;;;;;10.50;6.43;;;;;;;14.92;69.63;98988.44;5126527;28;20040;-91
2021/06/12 04:33:16;;;;;;;10.25;6.68;;;;;;;15.00;68.88;98997.00;5132299;27;20513;-93
2021/06/12 04:35:42;;;;;;;11.10;7.65;;;;;;;15.03;69.66;98997.81;5132037;27;20050;-92
2021/06/12 04:38:08;;;;;;;11.30;7.05;;;;;;;15.08;68.82;98995.84;5131766;27;20487;-92
2021/06/12 04:40:35;;;;;;;10.68;6.55;;;;;;;15.01;68.68;98987.19;5132095;27;20065;-92
2021/06/12 04:43:02;;;;;;;10.10;6.82;;;;;;;15.08;68.55;98987.81;5130997;27;20034;-92
2021/06/12 04:45:28;;;;;;;12.23;7.80;;;;;;;15.24;68.42;99006.78;5129341;27;20040;-91
2021/06/12 04:47:56;;;;;;;12.35;7.82;;;;;;;15.29;68.23;98992.25;5132045;27;20059;-92
2021/06/12 04:50:22;;;;;;;12.93;8.23;;;;;;;15.52;67.68;99014.50;5130752;27;20086;-91
2021/06/12 04:52:48;;;;;;;12.52;8.05;;;;;;;16.03;65.38;99026.59;5131690;27;20067;-92
2021/06/12 04:55:14;;;;;;;14.18;7.90;;;;;;;16.84;62.77;99025.47;5131418;27;20066;-91
2021/06/12 04:57:40;;;;;;;13.52;6.88;;;;;;;17.53;59.24;99009.53;5129035;28;20506;-91
2021/06/12 05:00:10;;;;;;;14.32;7.00;;;;;;;18.33;56.85;99019.66;5129709;27;20031;-92
2021/06/12 05:02:38;;;;;;;10.00;6.63;;;;;;;18.76;55.28;99005.59;5131634;27;20370;-92
2021/06/12 05:05:06;;;;;;;12.90;7.00;;;;;;;19.18;54.78;99023.00;5131399;27;20127;-90
2021/06/12 05:07:32;;;;;;;8.23;6.00;;;;;;;19.27;54.71;99008.97;5120430;27;20047;-92
2021/06/12 05:09:57;;;;;;;9.30;6.70;;;;;;;19.05;54.20;99010.22;5119442;28;20028;-92
2021/06/12 05:12:24;;;;;;;11.13;5.72;;;;;;;19.01;54.83;99032.91;5117865;28;20044;-92
2021/06/12 05:14:52;;;;;;;9.50;6.20;;;;;;;18.76;55.33;99037.91;5117713;28;20031;-93
2021/06/12 05:17:19;;;;;;;8.38;6.00;;;;;;;18.72;56.28;99031.00;5114609;28;20036;-93
2021/06/12 05:19:45;;;;;;;8.95;6.45;;;;;;;18.92;55.90;99019.09;5116599;28;20071;-92
2021/06/12 05:22:12;;;;;;;7.85;5.55;;;;;;;19.08;55.24;99020.84;5117023;28;20062;-92
2021/06/12 05:24:39;;;;;;;8.02;5.80;;;;;;;18.95;55.45;99032.41;5116272;28;20044;-93
2021/06/12 05:27:06;;;;;;;7.88;5.50;;;;;;;18.77;56.50;99036.97;5115874;28;20365;-92
2021/06/12 05:29:32;;;;;;;7.88;5.72;;;;;;;18.84;56.66;99047.34;5116161;27;20073;-93
2021/06/12 05:31:58;;;;;;;9.68;5.88;;;;;;;19.05;55.43;99026.38;5113805;28;20493;-92
2021/06/12 05:34:24;;;;;;;10.40;5.85;;;;;;;19.67;54.43;99030.88;5115741;28;20043;-93
2021/06/12 05:36:50;;;;;;;11.00;5.75;;;;;;;20.04;52.89;99010.63;5115943;28;20039;-91
2021/06/12 05:39:17;;;;;;;11.65;5.93;;;;;;;20.48;51.63;99030.41;5116842;28;20110;-93
2021/06/12 05:41:43;;;;;;;11.00;5.90;;;;;;;20.82;51.31;99028.25;5116810;28;20039;-90
2021/06/12 05:44:09;;;;;;;8.10;5.53;;;;;;;20.82;50.25;99030.94;5116459;28;20047;-94
2021/06/12 05:46:35;;;;;;;9.50;5.40;;;;;;;20.96;50.51;99021.97;5114077;28;20377;-92
2021/06/12 05:49:01;;;;;;;8.00;5.88;;;;;;;20.94;49.82;99024.75;5116483;28;20518;-90
2021/06/12 05:51:27;;;;;;;8.50;6.03;;;;;;;21.31;49.19;99036.69;5118076;28;20047;-91
2021/06/12 05:53:52;;;;;;;8.48;5.50;;;;;;;21.41;48.92;99022.56;5117553;28;20054;-92
2021/06/12 05:56:20;;;;;;;9.40;5.57;;;;;;;21.74;48.39;99032.97;5115875;28;20040;-92
2021/06/12 05:58:46;;;;;;;8.90;5.85;;;;;;;22.11;47.66;99035.81;5116987;28;20040;-91
2021/06/12 06:01:12;;;;;;;7.20;5.80;;;;;;;22.09;46.69;99016.94;5114126;28;20019;-91
2021/06/12 06:03:38;;;;;;;10.02;5.47;;;;;;;22.01;47.10;99032.91;5115813;28;20046;-91
2021/06/12 06:09:04;;;;;;;8.70;5.78;;;;;;;22.19;46.85;99046.13;5148162;27;20360;-91
2021/06/12 06:11:30;;;;;;;7.50;6.10;;;;;;;22.16;47.35;99044.47;5131890;27;20047;-90
2021/06/12 06:13:56;;;;;;;9.05;6.00;;;;;;;22.18;46.54;99041.66;5131422;27;20042;-90
2021/06/12 06:16:22;;;;;;;10.40;6.50;;;;;;;22.39;46.35;99040.16;5129542;27;20023;-91
2021/06/12 06:18:48;;;;;;;7.53;5.80;;;;;;;22.50;45.84;99044.81;5131314;27;20043;-90
2021/06/12 06:21:14;;;;;;;9.57;5.93;;;;;;;22.55;45.89;99038.09;5131340;27;20040;-92
2021/06/12 06:23:40;;;;;;;9.27;5.85;;;;;;;22.49;46.26;99037.69;5131209;27;20076;-90
2021/06/12 06:26:07;;;;;;;8.15;5.30;;;;;;;22.50;45.66;99031.28;5130871;27;20035;-93
2021/06/12 06:28:33;;;;;;;9.40;5.38;;;;;;;22.62;45.64;99029.50;5131001;27;20491;-91
2021/06/12 06:30:59;;;;;;;8.70;5.70;;;;;;;22.58;45.24;99042.44;5128920;27;20039;-90
2021/06/12 06:33:25;;;;;;;7.50;5.60;;;;;;;22.72;44.31;99038.72;5130935;27;20492;-91
2021/06/12 06:35:52;;;;;;;6.47;4.90;;;;;;;22.74;43.76;99025.91;5130929;27;20131;-91
2021/06/12 06:38:18;;;;;;;8.73;5.35;;;;;;;22.92;44.87;99031.81;5131047;27;20031;-92
2021/06/12 06:40:44;;;;;;;8.52;5.28;;;;;;;23.02;44.39;99034.75;5130830;27;20058;-91
2021/06/12 06:43:12;;;;;;;8.13;5.15;;;;;;;23.24;43.68;99024.03;5130677;27;20050;-91
2021/06/12 06:45:39;;;;;;;8.27;5.25;;;;;;;23.54;42.82;99045.25;5128332;27;20496;-91
2021/06/12 06:48:06;;;;;;;7.28;5.45;;;;;;;23.17;44.20;99018.19;5130527;27;20104;-92
2021/06/12 06:50:32;;;;;;;7.30;5.53;;;;;;;23.31;44.31;99038.88;5130691;27;20508;-92
2021/06/12 06:52:59;;;;;;;6.65;5.25;;;;;;;23.26;44.65;99030.22;5130395;27;20049;-91
2021/06/12 06:55:25;;;;;;;8.73;5.45;;;;;;;23.68;43.76;99025.22;5128351;27;20050;-91
2021/06/12 06:57:51;;;;;;;9.02;5.47;;;;;;;24.09;43.49;99029.28;5130266;27;20462;-91
2021/06/12 07:00:18;;;;;;;7.38;5.50;;;;;;;24.27;43.07;99018.84;5126191;27;20033;-89
2021/06/12 07:02:44;;;;;;;8.55;5.70;;;;;;;24.33;41.54;99010.19;5129829;27;20039;-90
2021/06/12 07:05:11;;;;;;;9.57;5.63;;;;;;;24.42;42.72;99021.28;5129846;27;20062;-89
2021/06/12 07:07:36;;;;;;;7.65;5.20;;;;;;;24.70;42.56;99031.72;5126696;27;20138;-90
2021/06/12 07:10:03;;;;;;;7.28;5.38;;;;;;;24.87;42.39;99029.47;5129863;27;20127;-90
2021/06/12 07:12:29;;;;;;;7.30;5.38;;;;;;;24.92;42.65;99021.81;5131321;27;20526;-92
2021/06/12 07:14:55;;;;;;;9.15;6.03;;;;;;;24.83;42.72;99030.69;5131078;27;20035;-92
2021/06/12 07:17:22;;;;;;;10.55;5.60;;;;;;;24.83;42.28;99011.66;5131335;27;20138;-91
2021/06/12 07:19:48;;;;;;;12.93;5.93;;;;;;;24.88;43.03;99029.34;5120607;27;20035;-92
2021/06/12 07:22:14;;;;;;;9.73;5.72;;;;;;;24.80;41.06;99029.97;5117719;28;20040;-93
2021/06/12 07:24:40;;;;;;;8.85;6.00;;;;;;;24.28;42.75;99027.84;5119275;28;20032;-92
2021/06/12 07:27:07;;;;;;;7.50;5.68;;;;;;;24.38;42.96;99026.13;5120143;28;20503;-93
2021/06/12 07:29:33;;;;;;;7.80;5.90;;;;;;;24.81;38.83;99017.25;5120777;27;20046;-93
2021/06/12 07:31:59;;;;;;;8.13;5.63;;;;;;;25.18;38.38;99025.09;5120843;28;20130;-91
2021/06/12 07:34:27;;;;;;;8.05;5.88;;;;;;;25.26;37.35;99021.75;5119508;28;20047;-93
2021/06/12 07:36:52;;;;;;;6.90;5.43;;;;;;;25.29;37.35;99030.53;5120591;28;20135;-93
2021/06/12 07:39:18;;;;;;;7.68;5.47;;;;;;;25.58;36.81;99035.34;5121031;28;20051;-93
2021/06/12 07:41:44;;;;;;;8.55;5.97;;;;;;;25.69;37.58;99024.41;5122161;27;20396;-91
2021/06/12 07:44:10;;;;;;;9.15;5.40;;;;;;;25.72;38.61;99028.72;5120437;28;20106;-92
2021/06/12 07:46:36;;;;;;;8.10;5.93;;;;;;;25.73;37.91;99008.69;5121019;27;20040;-92
2021/06/12 07:49:03;;;;;;;8.57;5.90;;;;;;;25.65;38.33;99006.59;5120519;28;20040;-92
2021/06/12 07:51:33;;;;;;;7.97;6.30;;;;;;;25.31;38.48;99020.38;5121441;28;20039;-92
2021/06/12 07:53:59;;;;;;;7.97;6.25;;;;;;;25.07;40.00;99033.25;5120077;28;20099;-92
2021/06/12 07:56:25;;;;;;;7.93;5.80;;;;;;;25.05;39.34;99025.25;5117416;28;20429;-91
2021/06/12 07:58:51;;;;;;;7.25;5.65;;;;;;;25.35;39.58;99021.84;5118367;28;20042;-93
2021/06/12 08:01:17;;;;;;;11.52;7.35;;;;;;;25.47;38.54;99035.41;5115658;28;20493;-92
2021/06/12 08:03:43;;;;;;;10.20;6.88;;;;;;;24.36;41.29;99017.22;5118144;28;20036;-94
2021/06/12 08:06:09;;;;;;;11.70;7.05;;;;;;;24.51;41.80;99016.03;5118400;28;20043;-92
2021/06/12 08:08:36;;;;;;;9.43;6.88;;;;;;;24.85;40.28;99018.69;5117297;28;20067;-93
2021/06/12 08:11:02;;;;;;;8.38;6.45;;;;;;;25.29;41.09;99033.25;5115299;28;20096;-91
2021/06/12 08:13:28;;;;;;;10.07;6.25;;;;;;;25.62;38.79;99018.63;5118540;28;20837;-91
2021/06/12 08:15:54;;;;;;;7.32;5.90;;;;;;;25.98;38.62;99013.78;5115100;28;20047;-92
2021/06/12 08:18:20;;;;;;;9.13;6.85;;;;;;;25.58;39.95;99028.03;5116634;28;20040;-90
2021/06/12 08:20:47;;;;;;;9.35;6.05;;;;;;;25.89;39.36;99022.72;5116916;28;20044;-92
2021/06/12 08:23:13;;;;;;;9.02;6.35;;;;;;;26.15;37.50;99008.69;5117968;28;20464;-91
2021/06/12 08:25:40;;;;;;;9.18;6.13;;;;;;;25.98;38.10;99008.31;5116396;28;20126;-91
2021/06/12 08:28:06;;;;;;;9.20;6.82;;;;;;;26.37;37.38;99011.25;5117193;28;20059;-92
2021/06/12 08:33:31;;;;;;;9.68;6.30;;;;;;;25.29;38.74;99024.22;5149527;27;20127;-91
2021/06/12 08:35:57;;;;;;;9.35;6.15;;;;;;;25.73;38.23;99019.56;5132964;27;20729;-92
2021/06/12 08:38:23;;;;;;;9.73;6.05;;;;;;;26.30;37.99;99010.06;5133846;27;20063;-91
2021/06/12 08:40:49;;;;;;;12.60;10.05;;;;;;;26.37;37.10;99010.38;5133285;27;20161;-92
2021/06/12 08:43:20;;;;;;;7.80;5.93;;;;;;;26.06;37.63;99028.56;5133782;27;20043;-91
2021/06/12 08:45:47;;;;;;;13.20;10.32;;;;;;;25.87;36.93;99008.31;5129952;27;20468;-91
2021/06/12 08:48:14;;;;;;;85.78;36.72;;;;;;;25.73;36.18;99006.81;5132083;27;20039;-92
2021/06/12 08:50:41;;;;;;;14.65;10.20;;;;;;;25.67;37.50;99023.66;5131840;27;20492;-93
2021/06/12 08:53:07;;;;;;;8.57;6.43;;;;;;;25.87;36.12;99016.50;5131398;27;20437;-90
2021/06/12 08:55:33;;;;;;;8.07;5.90;;;;;;;26.07;36.64;99027.56;5131071;27;20577;-93
2021/06/12 08:57:59;;;;;;;8.77;6.35;;;;;;;25.84;37.84;99011.31;5131235;27;20043;-92
2021/06/12 09:00:25;;;;;;;9.15;6.18;;;;;;;26.19;36.99;99005.56;5130629;27;20063;-92
2021/06/12 09:03:10;;;;;;;9.00;6.43;;;;;;;26.03;38.32;99022.41;5131510;27;20388;-90
2021/06/12 09:05:56;;;;;;;7.85;5.75;;;;;;;26.23;37.26;99033.41;5129098;28;20043;-90
2021/06/12 09:08:23;;;;;;;9.57;6.55;;;;;;;26.52;37.14;99014.47;5125481;28;20366;-92
2021/06/12 09:10:52;;;;;;;9.20;6.00;;;;;;;26.46;37.06;99008.69;5131693;27;20035;-94
2021/06/12 09:13:37;;;;;;;8.85;5.97;;;;;;;26.52;36.11;99009.00;5131746;27;20043;-95
2021/06/12 09:16:05;;;;;;;7.20;5.80;;;;;;;26.33;37.32;99006.22;5130104;28;20088;-92
2021/06/12 09:18:39;;;;;;;7.53;6.13;;;;;;;26.84;35.01;99000.69;5131827;27;20160;-92
2021/06/12 09:21:07;;;;;;;7.28;5.95;;;;;;;26.91;35.53;99000.97;5131202;27;20388;-92
2021/06/12 09:23:40;;;;;;;6.97;5.70;;;;;;;26.55;36.20;99008.75;5131406;27;20393;-91
2021/06/12 09:26:07;;;;;;;7.05;5.80;;;;;;;26.53;37.59;99004.44;5130643;27;20040;-92
2021/06/12 09:28:47;;;;;;;8.38;5.88;;;;;;;27.06;35.87;99015.09;5131226;27;20059;-92
2021/06/12 09:31:21;;;;;;;10.25;6.15;;;;;;;26.67;36.46;99012.25;5130094;27;20113;-91
2021/06/12 09:33:47;;;;;;;9.30;5.75;;;;;;;26.71;36.20;99012.84;5131567;27;20039;-94
2021/06/12 09:36:15;;;;;;;9.07;6.05;;;;;;;26.62;35.74;99015.41;5131142;27;20044;-93
2021/06/12 09:38:42;;;;;;;9.05;6.90;;;;;;;27.10;34.43;99000.16;5130475;27;20092;-93
2021/06/12 09:41:24;;;;;;;7.90;5.97;;;;;;;27.30;35.24;99003.81;5131070;27;20039;-91
2021/06/12 09:43:49;;;;;;;7.38;6.00;;;;;;;27.70;34.85;98996.50;5113823;28;20040;-94
2021/06/12 09:46:36;;;;;;;7.85;5.57;;;;;;;27.84;34.51;98998.78;5116596;28;20049;-94
2021/06/12 09:49:04;;;;;;;10.18;6.55;;;;;;;28.21;34.20;98996.13;5113000;28;20497;-94
2021/06/12 09:51:32;;;;;;;8.25;5.50;;;;;;;27.54;34.30;98987.03;5118348;28;20154;-94
2021/06/12 09:54:00;;;;;;;8.80;5.63;;;;;;;27.86;35.14;99002.25;5118902;28;20059;-93
2021/06/12 09:56:25;;;;;;;7.77;5.87;;;;;;;27.62;35.25;98994.50;5117731;28;20071;-91
2021/06/12 09:58:52;;;;;;;7.82;5.93;;;;;;;27.32;35.13;98993.63;5119146;28;20039;-94
2021/06/12 10:01:20;;;;;;;7.60;5.43;;;;;;;27.91;34.13;98996.34;5117886;28;20040;-94
2021/06/12 10:03:47;;;;;;;7.35;5.22;;;;;;;28.19;34.18;98986.34;5117292;28;20035;-92
2021/06/12 10:06:16;;;;;;;6.35;5.05;;;;;;;28.81;33.43;99001.25;5116622;28;20031;-95
2021/06/12 10:08:46;;;;;;;7.57;5.10;;;;;;;29.25;30.54;98995.94;5117098;28;20057;-93
2021/06/12 10:11:12;;;;;;;6.32;4.90;;;;;;;29.07;29.35;98968.53;5116774;28;20118;-95
2021/06/12 10:13:39;;;;;;;6.38;5.35;;;;;;;28.98;30.40;98972.19;5116470;28;20047;-94
2021/06/12 10:16:06;;;;;;;7.25;5.18;;;;;;;29.24;29.82;98982.44;5115596;28;20046;-94
2021/06/12 10:18:33;;;;;;;8.27;5.13;;;;;;;29.62;31.00;98974.91;5117153;27;20389;-94
2021/06/12 10:21:00;;;;;;;5.28;4.50;;;;;;;28.73;30.73;98967.44;5116868;28;20044;-93
2021/06/12 10:23:25;;;;;;;7.18;5.22;;;;;;;28.66;31.61;98964.47;5116803;28;20039;-94
2021/06/12 10:25:53;;;;;;;6.10;5.07;;;;;;;27.94;33.32;98960.53;5116792;28;20458;-94
2021/06/12 10:28:20;;;;;;;7.57;5.33;;;;;;;27.77;34.79;98979.38;5116558;28;20097;-92
2021/06/12 10:30:47;;;;;;;6.63;5.40;;;;;;;28.12;33.17;98964.22;5114291;28;20453;-92
2021/06/12 10:33:16;;;;;;;6.55;5.40;;;;;;;28.21;33.78;98967.94;5115312;28;20059;-91
2021/06/12 10:35:42;;;;;;;7.50;5.50;;;;;;;28.41;32.78;98964.13;5115232;28;20059;-93
2021/06/12 10:41:17;;;;;;;6.78;5.20;;;;;;;28.79;32.86;98975.91;5148238;27;20135;-90
2021/06/12 10:43:44;;;;;;;6.40;5.20;;;;;;;28.20;32.41;98979.91;5131625;27;20040;-91
2021/06/12 10:46:15;;;;;;;7.07;4.70;;;;;;;28.12;31.97;98966.94;5130300;27;20045;-90
2021/06/12 10:48:43;;;;;;;6.32;4.88;;;;;;;27.92;32.67;98971.63;5131402;27;20045;-90
2021/06/12 10:51:11;;;;;;;6.70;4.93;;;;;;;27.85;33.43;98985.00;5129955;28;20035;-91
2021/06/12 10:53:38;;;;;;;6.50;5.20;;;;;;;27.65;32.71;98988.72;5131894;27;20071;-91
2021/06/12 10:56:07;;;;;;;6.38;5.30;;;;;;;27.37;34.18;98974.94;5131898;27;20046;-90
2021/06/12 10:58:43;;;;;;;6.68;4.75;;;;;;;27.51;33.43;98989.19;5131086;27;20492;-90
2021/06/12 11:01:15;;;;;;;7.18;4.47;;;;;;;28.36;31.30;98982.84;5128402;28;20032;-90
2021/06/12 11:09:48;;;;;;;5.68;4.57;;;;;;;29.52;28.89;98964.03;5147979;27;20584;-89
2021/06/12 11:12:34;;;;;;;5.47;4.17;;;;;;;29.56;30.12;98973.66;5131778;27;20058;-92
2021/06/12 11:15:09;;;;;;;6.20;4.32;;;;;;;29.35;29.93;98967.66;5129912;28;20039;-90
2021/06/12 11:17:36;;;;;;;5.18;4.32;;;;;;;29.55;28.45;98974.66;5131463;27;20500;-93
2021/06/12 11:20:25;;;;;;;5.93;4.90;;;;;;;29.15;28.87;98981.50;5131785;27;20393;-92
2021/06/12 11:22:52;;;;;;;5.60;4.68;;;;;;;28.73;29.39;98970.19;5131446;27;20598;-93
2021/06/12 11:26:00;;;;;;;5.00;4.10;;;;;;;29.18;28.93;98970.22;5131447;27;20092;-92
2021/06/12 11:28:27;;;;;;;;;;;;;;;29.59;27.22;98964.28;5131694;28;20291;-92
2021/06/12 11:31:14;;;;;;;6.38;4.40;;;;;;;29.66;28.44;98954.38;5130037;27;19923;-91
2021/06/12 11:33:40;;;;;;;5.85;4.40;;;;;;;29.29;28.78;98947.22;5127862;28;20040;-94
2021/06/12 11:36:06;;;;;;;5.80;4.72;;;;;;;29.31;28.00;98945.19;5132354;28;20043;-94
2021/06/12 11:38:34;;;;;;;6.13;4.40;;;;;;;29.68;26.97;98950.47;5126930;28;20058;-91
2021/06/12 11:41:04;;;;;;;5.38;4.30;;;;;;;29.75;29.62;98941.63;5132705;27;20042;-93
2021/06/12 11:43:33;;;;;;;5.32;4.60;;;;;;;29.54;28.46;98940.09;5133940;27;20039;-95
2021/06/12 11:45:59;;;;;;;7.47;4.70;;;;;;;29.72;26.95;98933.75;5131720;27;20088;-94
2021/06/12 11:48:28;;;;;;;8.75;4.60;;;;;;;30.00;28.43;98935.31;5127279;27;20092;-91
2021/06/12 11:50:58;;;;;;;5.45;4.63;;;;;;;29.49;28.59;98943.31;5130339;27;20036;-94
2021/06/12 11:53:34;;;;;;;7.13;4.45;;;;;;;28.90;29.95;98924.72;5132512;27;20053;-93
2021/06/12 11:56:02;;;;;;;6.00;4.18;;;;;;;28.33;30.51;98917.50;5133991;27;20039;-92
2021/06/12 11:58:30;;;;;;;6.60;4.60;;;;;;;28.12;31.45;98942.34;5131513;27;20654;-92
2021/06/12 12:00:57;;;;;;;6.25;4.55;;;;;;;27.40;32.47;98936.41;5131132;27;20061;-93
2021/06/12 12:03:23;;;;;;;5.22;4.50;;;;;;;27.72;32.15;98934.38;5130173;27;20135;-91